createdAt,value
2019-03-26T00:01:20.741Z,4.17
2019-03-26T00:03:50.600Z,4.03
2019-03-26T00:06:20.377Z,4.13
2019-03-26T00:08:50.121Z,4.80
2019-03-26T00:11:19.994Z,4.43
2019-03-26T00:13:49.847Z,4.33
2019-03-26T00:16:19.620Z,4.07
2019-03-26T00:18:49.375Z,4.10
2019-03-26T00:21:19.147Z,3.90
2019-03-26T00:23:48.898Z,4.50
2019-03-26T00:26:18.663Z,4.50
2019-03-26T00:28:48.412Z,4.57
2019-03-26T00:31:18.191Z,4.40
2019-03-26T00:33:47.982Z,4.03
2019-03-26T00:36:17.882Z,3.97
2019-03-26T00:38:48.087Z,4.93
2019-03-26T00:41:17.910Z,5.17
2019-03-26T00:43:47.878Z,4.73
2019-03-26T00:46:17.758Z,4.90
2019-03-26T00:48:47.622Z,5.17
2019-03-26T00:51:17.400Z,5.13
2019-03-26T00:53:47.149Z,4.80
2019-03-26T00:56:16.944Z,5.10
2019-03-26T00:58:46.682Z,5.17
2019-03-26T01:01:16.667Z,4.97
2019-03-26T01:03:46.511Z,5.17
2019-03-26T01:06:16.291Z,5.03
2019-03-26T01:08:46.034Z,5.20
2019-03-26T01:11:15.912Z,4.80
2019-03-26T01:13:45.669Z,4.80
2019-03-26T01:16:15.438Z,4.50
2019-03-26T01:18:46.194Z,4.23
2019-03-26T01:21:16.177Z,4.10
2019-03-26T01:23:46.034Z,3.70
2019-03-26T01:26:15.810Z,3.63
2019-03-26T01:28:45.667Z,3.43
2019-03-26T01:31:15.642Z,3.63
2019-03-26T01:33:45.419Z,3.57
2019-03-26T01:36:15.183Z,3.40
2019-03-26T01:38:45.194Z,3.40
2019-03-26T01:41:15.018Z,3.23
2019-03-26T01:43:44.766Z,3.60
2019-03-26T01:46:14.549Z,3.60
2019-03-26T01:48:44.292Z,3.83
2019-03-26T01:51:14.070Z,3.87
2019-03-26T01:53:43.949Z,3.80
2019-03-26T01:56:13.746Z,3.87
2019-03-26T01:58:43.614Z,4.00
2019-03-26T02:01:13.589Z,4.40
2019-03-26T02:03:43.354Z,4.13
2019-03-26T02:06:13.118Z,3.93
2019-03-26T02:08:42.901Z,4.27
2019-03-26T02:11:12.671Z,4.43
2019-03-26T02:13:42.534Z,4.13
2019-03-26T02:16:12.386Z,4.70
2019-03-26T02:18:42.365Z,4.90
2019-03-26T02:21:12.110Z,5.03
2019-03-26T02:23:41.922Z,5.47
2019-03-26T02:26:11.687Z,5.30
2019-03-26T02:28:41.561Z,5.53
2019-03-26T02:31:11.507Z,5.97
2019-03-26T02:33:41.309Z,5.60
2019-03-26T02:36:11.072Z,5.60
2019-03-26T02:38:40.855Z,5.73
2019-03-26T02:41:10.605Z,5.67
2019-03-26T02:43:40.368Z,6.03
2019-03-26T02:46:10.117Z,5.07
2019-03-26T02:48:39.905Z,5.00
2019-03-26T02:51:09.662Z,5.30
2019-03-26T02:53:39.522Z,5.70
2019-03-26T02:56:09.467Z,5.30
2019-03-26T02:58:39.327Z,5.90
2019-03-26T03:01:09.077Z,6.17
2019-03-26T03:03:38.889Z,5.93
2019-03-26T03:06:08.628Z,6.20
2019-03-26T03:08:38.589Z,6.40
2019-03-26T03:11:08.356Z,6.57
2019-03-26T03:13:38.146Z,5.50
2019-03-26T03:16:07.870Z,6.07
2019-03-26T03:18:37.640Z,5.80
2019-03-26T03:21:07.412Z,5.83
2019-03-26T03:23:37.191Z,6.17
2019-03-26T03:26:06.960Z,6.13
2019-03-26T03:28:36.865Z,5.60
2019-03-26T03:31:07.045Z,5.43
2019-03-26T03:33:36.934Z,5.40
2019-03-26T03:36:06.770Z,5.07
2019-03-26T03:38:36.546Z,4.67
2019-03-26T03:41:06.800Z,4.97
2019-03-26T03:43:36.597Z,5.40
2019-03-26T03:46:06.439Z,5.20
2019-03-26T03:48:37.121Z,5.63
2019-03-26T03:51:08.440Z,5.50
2019-03-26T03:53:38.549Z,5.77
2019-03-26T03:56:11.460Z,5.40
2019-03-26T03:58:44.126Z,5.30
2019-03-26T04:01:13.875Z,5.93
2019-03-26T04:03:43.649Z,5.97
2019-03-26T04:06:13.505Z,7.00
2019-03-26T04:08:43.276Z,6.93
2019-03-26T04:11:13.128Z,7.07
2019-03-26T04:13:42.894Z,6.80
2019-03-26T04:16:12.638Z,7.53
2019-03-26T04:18:42.522Z,6.60
2019-03-26T04:21:12.282Z,7.23
2019-03-26T04:23:42.168Z,6.63
2019-03-26T04:26:11.921Z,7.17
2019-03-26T04:28:41.815Z,13.27
2019-03-26T04:31:11.705Z,12.60
2019-03-26T04:33:41.603Z,8.10
2019-03-26T04:36:24.505Z,7.90
2019-03-26T04:38:43.104Z,7.77
2019-03-26T04:41:12.931Z,7.97
2019-03-26T04:43:42.933Z,7.77
2019-03-26T04:46:12.673Z,7.30
2019-03-26T04:48:42.564Z,7.63
2019-03-26T04:51:12.735Z,7.47
2019-03-26T04:53:42.515Z,8.20
2019-03-26T04:56:12.461Z,7.57
2019-03-26T04:58:43.977Z,8.30
2019-03-26T05:01:13.970Z,7.33
2019-03-26T05:03:43.844Z,8.17
2019-03-26T05:06:13.704Z,8.90
2019-03-26T05:08:43.707Z,8.63
2019-03-26T05:11:13.466Z,8.13
2019-03-26T05:13:43.240Z,9.07
2019-03-26T05:16:13.140Z,8.70
2019-03-26T05:18:42.929Z,8.93
2019-03-26T05:21:12.711Z,8.77
2019-03-26T05:23:42.499Z,8.43
2019-03-26T05:26:12.254Z,8.03
2019-03-26T05:28:42.043Z,7.90
2019-03-26T05:31:12.023Z,8.40
2019-03-26T05:33:41.829Z,8.33
2019-03-26T05:36:11.586Z,8.60
2019-03-26T05:38:41.394Z,9.47
2019-03-26T05:41:11.265Z,9.47
2019-03-26T05:43:41.253Z,10.07
2019-03-26T05:46:11.108Z,9.67
2019-03-26T05:48:40.907Z,9.40
2019-03-26T05:51:10.662Z,9.80
2019-03-26T05:53:40.456Z,9.97
2019-03-26T05:56:10.420Z,10.03
2019-03-26T05:58:40.217Z,9.83
2019-03-26T06:01:09.983Z,9.40
2019-03-26T06:03:39.803Z,10.40
2019-03-26T06:06:09.624Z,9.17
2019-03-26T06:08:39.376Z,10.43
2019-03-26T06:11:09.269Z,9.70
2019-03-26T06:13:39.034Z,9.30
2019-03-26T06:16:08.927Z,9.43
2019-03-26T06:18:38.828Z,9.77
2019-03-26T06:21:09.328Z,9.27
2019-03-26T06:23:39.136Z,9.07
2019-03-26T06:26:09.236Z,9.87
2019-03-26T06:28:38.992Z,9.20
2019-03-26T06:31:08.794Z,8.97
2019-03-26T06:33:38.611Z,9.70
2019-03-26T06:36:08.419Z,9.20
2019-03-26T06:38:38.309Z,8.57
2019-03-26T06:41:08.083Z,8.83
2019-03-26T06:43:37.988Z,8.67
2019-03-26T06:46:07.885Z,9.60
2019-03-26T06:48:37.830Z,9.70
2019-03-26T06:51:07.737Z,9.27
2019-03-26T06:53:37.689Z,9.30
2019-03-26T06:56:07.565Z,8.70
2019-03-26T06:58:37.422Z,9.50
2019-03-26T07:01:07.537Z,9.43
2019-03-26T07:03:37.325Z,9.70
2019-03-26T07:06:07.130Z,9.70
2019-03-26T07:08:37.035Z,8.97
2019-03-26T07:11:07.030Z,9.73
2019-03-26T07:13:36.796Z,9.87
2019-03-26T07:16:06.659Z,9.10
2019-03-26T07:18:36.423Z,9.27
2019-03-26T07:21:06.208Z,8.17
2019-03-26T07:23:36.176Z,8.37
2019-03-26T07:26:06.001Z,9.17
2019-03-26T07:28:35.775Z,8.20
2019-03-26T07:31:05.676Z,8.07
2019-03-26T07:33:35.872Z,8.17
2019-03-26T07:36:05.685Z,8.20
2019-03-26T07:38:36.524Z,10.17
2019-03-26T07:41:06.399Z,8.50
2019-03-26T07:43:36.313Z,8.03
2019-03-26T07:46:06.208Z,7.97
2019-03-26T07:48:35.995Z,7.47
2019-03-26T07:51:05.782Z,8.20
2019-03-26T07:53:35.572Z,6.90
2019-03-26T07:56:05.333Z,6.97
2019-03-26T07:58:35.421Z,6.43
2019-03-26T08:01:05.242Z,24.30
2019-03-26T08:03:35.028Z,11.13
2019-03-26T08:06:04.845Z,7.27
2019-03-26T08:08:34.607Z,7.43
2019-03-26T08:11:04.416Z,6.77
2019-03-26T08:13:34.217Z,7.33
2019-03-26T08:16:03.980Z,7.40
2019-03-26T08:18:33.875Z,6.80
2019-03-26T08:21:03.667Z,7.20
2019-03-26T08:23:33.516Z,7.20
2019-03-26T08:26:03.294Z,7.63
2019-03-26T08:28:33.041Z,7.07
2019-03-26T08:31:02.833Z,7.20
2019-03-26T08:33:32.645Z,6.87
2019-03-26T08:36:02.442Z,6.80
2019-03-26T08:38:33.600Z,7.43
2019-03-26T08:41:03.663Z,8.10
2019-03-26T08:43:33.426Z,8.00
2019-03-26T08:46:03.219Z,7.00
2019-03-26T08:48:32.958Z,6.67
2019-03-26T08:51:02.758Z,6.27
2019-03-26T08:53:32.514Z,7.07
2019-03-26T08:56:02.308Z,6.53
2019-03-26T08:58:32.073Z,7.40
2019-03-26T09:01:01.852Z,7.13
2019-03-26T09:03:31.623Z,6.97
2019-03-26T09:06:01.408Z,7.27
2019-03-26T09:08:31.170Z,7.83
2019-03-26T09:11:00.988Z,7.10
2019-03-26T09:13:30.728Z,5.80
2019-03-26T09:16:00.848Z,5.97
2019-03-26T09:18:30.602Z,5.90
2019-03-26T09:21:00.382Z,6.13
2019-03-26T09:23:30.176Z,5.90
2019-03-26T09:25:59.947Z,6.20
2019-03-26T09:28:29.728Z,6.37
2019-03-26T09:30:59.489Z,7.03
2019-03-26T09:33:29.271Z,6.70
2019-03-26T09:35:59.028Z,5.90
2019-03-26T09:38:38.258Z,6.33
2019-03-26T09:41:00.295Z,5.30
2019-03-26T09:43:30.176Z,5.10
2019-03-26T09:46:00.059Z,5.70
2019-03-26T09:48:29.843Z,5.20
2019-03-26T09:50:59.600Z,5.27
2019-03-26T09:53:29.418Z,7.87
2019-03-26T09:55:59.179Z,5.83
2019-03-26T09:58:28.984Z,6.13
2019-03-26T10:00:58.746Z,6.10
2019-03-26T10:03:28.559Z,5.40
2019-03-26T10:05:58.544Z,5.33
2019-03-26T10:08:28.435Z,5.57
2019-03-26T10:10:58.303Z,5.50
2019-03-26T10:13:28.301Z,7.17
2019-03-26T10:15:58.097Z,5.50
2019-03-26T10:18:27.907Z,5.97
2019-03-26T10:20:57.678Z,5.53
2019-03-26T10:23:27.574Z,4.60
2019-03-26T10:25:57.353Z,5.50
2019-03-26T10:28:27.240Z,6.20
2019-03-26T10:30:57.015Z,4.83
2019-03-26T10:33:26.832Z,4.67
2019-03-26T10:35:56.803Z,4.80
2019-03-26T10:38:26.620Z,4.20
2019-03-26T10:40:56.491Z,4.43
2019-03-26T10:43:26.282Z,3.47
2019-03-26T10:45:56.153Z,4.30
2019-03-26T10:48:25.963Z,4.73
2019-03-26T10:50:55.723Z,4.20
2019-03-26T10:53:25.535Z,3.70
2019-03-26T10:55:55.380Z,2.40
2019-03-26T10:58:25.289Z,3.10
2019-03-26T11:00:55.151Z,3.30
2019-03-26T11:03:24.949Z,3.70
2019-03-26T11:05:54.795Z,2.37
2019-03-26T11:08:26.018Z,4.83
2019-03-26T11:10:55.775Z,3.27
2019-03-26T11:13:25.572Z,3.70
2019-03-26T11:15:55.535Z,3.20
2019-03-26T11:18:25.436Z,3.90
2019-03-26T11:21:02.755Z,2.60
2019-03-26T11:23:26.823Z,3.10
2019-03-26T11:25:56.586Z,3.40
2019-03-26T11:28:26.366Z,3.27
2019-03-26T11:30:56.231Z,2.70
2019-03-26T11:33:26.115Z,3.50
2019-03-26T11:35:56.067Z,3.37
2019-03-26T11:38:25.961Z,3.33
2019-03-26T11:40:55.715Z,3.00
2019-03-26T11:43:25.594Z,3.30
2019-03-26T11:45:55.569Z,3.20
2019-03-26T11:48:25.388Z,3.10
2019-03-26T11:50:55.133Z,3.70
2019-03-26T11:53:25.013Z,3.07
2019-03-26T11:55:54.976Z,3.60
2019-03-26T11:58:30.407Z,2.80
2019-03-26T12:00:56.437Z,3.20
2019-03-26T12:03:26.443Z,3.07
2019-03-26T12:05:56.182Z,2.90
2019-03-26T12:08:25.957Z,3.00
2019-03-26T12:10:55.709Z,2.70
2019-03-26T12:13:25.584Z,2.77
2019-03-26T12:15:55.372Z,2.90
2019-03-26T12:18:25.285Z,2.70
2019-03-26T12:20:55.062Z,2.40
2019-03-26T12:23:25.048Z,3.03
2019-03-26T12:25:54.996Z,2.70
2019-03-26T12:28:24.880Z,3.13
2019-03-26T12:30:54.753Z,2.70
2019-03-26T12:33:24.495Z,3.00
2019-03-26T12:35:54.355Z,3.00
2019-03-26T12:38:24.746Z,3.20
2019-03-26T12:40:54.608Z,3.50
2019-03-26T12:43:24.587Z,3.17
2019-03-26T12:45:54.568Z,3.13
2019-03-26T12:48:24.342Z,3.40
2019-03-26T12:50:54.118Z,3.60
2019-03-26T12:53:23.999Z,3.67
2019-03-26T12:55:53.976Z,3.70
2019-03-26T12:58:31.768Z,3.07
2019-03-26T13:00:55.449Z,3.20
2019-03-26T13:03:25.326Z,2.90
2019-03-26T13:05:55.300Z,3.57
2019-03-26T13:08:25.162Z,3.17
2019-03-26T13:10:54.965Z,3.03
2019-03-26T13:13:24.749Z,3.07
2019-03-26T13:15:54.518Z,2.93
2019-03-26T13:18:24.346Z,3.17
2019-03-26T13:20:54.112Z,3.50
2019-03-26T13:23:23.964Z,3.83
2019-03-26T13:25:53.969Z,3.53
2019-03-26T13:28:23.824Z,3.40
2019-03-26T13:30:53.711Z,3.20
2019-03-26T13:33:23.491Z,3.00
2019-03-26T13:35:53.597Z,3.13
2019-03-26T13:38:23.450Z,3.60
2019-03-26T13:40:53.217Z,3.60
2019-03-26T13:43:23.103Z,4.70
2019-03-26T13:45:52.898Z,4.00
2019-03-26T13:48:22.652Z,3.77
2019-03-26T13:50:52.536Z,3.70
2019-03-26T13:53:22.603Z,3.77
2019-03-26T13:55:52.484Z,3.50
2019-03-26T13:58:22.349Z,3.80
2019-03-26T14:00:52.181Z,3.80
2019-03-26T14:03:21.942Z,3.90
2019-03-26T14:05:51.728Z,3.97
2019-03-26T14:08:21.595Z,4.27
2019-03-26T14:10:51.376Z,4.17
2019-03-26T14:13:21.239Z,4.40
2019-03-26T14:15:51.257Z,4.57
2019-03-26T14:18:21.008Z,4.80
2019-03-26T14:20:50.914Z,4.40
2019-03-26T14:23:20.674Z,4.80
2019-03-26T14:25:50.668Z,3.83
2019-03-26T14:28:20.435Z,4.00
2019-03-26T14:30:50.207Z,4.43
2019-03-26T14:33:19.966Z,4.17
2019-03-26T14:35:49.849Z,4.00
2019-03-26T14:38:19.788Z,5.47
2019-03-26T14:40:55.229Z,5.97
2019-03-26T14:43:21.048Z,4.20
2019-03-26T14:45:50.828Z,4.27
2019-03-26T14:48:20.595Z,4.60
2019-03-26T14:50:50.392Z,4.50
2019-03-26T14:53:20.299Z,4.43
2019-03-26T14:55:50.092Z,4.30
2019-03-26T14:58:19.862Z,4.23
2019-03-26T15:00:49.655Z,3.93
2019-03-26T15:03:19.436Z,4.33
2019-03-26T15:05:49.210Z,4.50
2019-03-26T15:08:19.165Z,4.27
2019-03-26T15:10:48.962Z,4.27
2019-03-26T15:13:18.720Z,3.90
2019-03-26T15:15:48.524Z,3.97
2019-03-26T15:18:18.379Z,4.30
2019-03-26T15:20:48.368Z,3.73
2019-03-26T15:23:18.224Z,4.03
2019-03-26T15:25:48.213Z,4.30
2019-03-26T15:28:18.272Z,4.23
2019-03-26T15:30:48.066Z,4.37
2019-03-26T15:33:17.821Z,4.23
2019-03-26T15:35:47.613Z,4.07
2019-03-26T15:38:17.576Z,3.90
2019-03-26T15:40:47.476Z,4.23
2019-03-26T15:43:17.344Z,4.20
2019-03-26T15:45:47.096Z,3.77
2019-03-26T15:48:16.979Z,3.80
2019-03-26T15:50:47.358Z,3.90
2019-03-26T15:53:17.163Z,4.10
2019-03-26T15:55:47.091Z,4.10
2019-03-26T15:58:17.169Z,4.40
2019-03-26T16:00:46.944Z,9.10
2019-03-26T16:03:16.925Z,7.70
2019-03-26T16:05:46.775Z,7.60
2019-03-26T16:08:16.551Z,4.57
2019-03-26T16:10:46.331Z,8.20
2019-03-26T16:13:16.135Z,7.60
2019-03-26T16:15:46.020Z,7.00
2019-03-26T16:18:15.901Z,5.53
2019-03-26T16:20:45.861Z,6.37
2019-03-26T16:23:15.736Z,4.73
2019-03-26T16:25:45.700Z,4.53
2019-03-26T16:28:15.494Z,4.30
2019-03-26T16:30:46.019Z,4.80
2019-03-26T16:33:15.919Z,4.33
2019-03-26T16:35:45.684Z,4.27
2019-03-26T16:38:15.471Z,3.73
2019-03-26T16:40:45.506Z,3.97
2019-03-26T16:43:15.346Z,4.27
2019-03-26T16:45:45.136Z,3.70
2019-03-26T16:48:15.412Z,3.50
2019-03-26T16:50:45.174Z,3.10
2019-03-26T16:53:15.211Z,3.10
2019-03-26T16:55:45.107Z,2.77
2019-03-26T16:58:15.107Z,3.20
2019-03-26T17:00:44.858Z,4.00
2019-03-26T17:03:15.680Z,2.77
2019-03-26T17:05:45.537Z,2.47
2019-03-26T17:08:15.744Z,2.50
2019-03-26T17:10:48.495Z,2.20
2019-03-26T17:13:17.178Z,3.80
2019-03-26T17:15:46.931Z,9.27
2019-03-26T17:18:16.720Z,7.80
2019-03-26T17:20:46.595Z,7.10
2019-03-26T17:23:16.686Z,10.87
2019-03-26T17:25:46.477Z,44.60
2019-03-26T17:28:16.261Z,5.63
2019-03-26T17:30:46.067Z,2.90
2019-03-26T17:33:16.132Z,2.80
2019-03-26T17:35:46.295Z,2.40
2019-03-26T17:38:16.101Z,7.20
2019-03-26T17:40:45.885Z,4.77
2019-03-26T17:43:15.679Z,2.30
2019-03-26T17:45:45.747Z,2.40
2019-03-26T17:48:15.526Z,2.13
2019-03-26T17:50:45.490Z,2.70
2019-03-26T17:53:15.327Z,2.30
2019-03-26T17:55:45.068Z,2.50
2019-03-26T17:58:14.898Z,2.43
2019-03-26T18:00:46.729Z,2.80
2019-03-26T18:03:26.441Z,2.70
2019-03-26T18:05:48.364Z,2.57
2019-03-26T18:08:18.467Z,2.87
2019-03-26T18:10:48.442Z,3.13
2019-03-26T18:13:18.247Z,2.90
2019-03-26T18:15:48.011Z,7.03
2019-03-26T18:18:17.873Z,4.47
2019-03-26T18:20:47.761Z,6.70
2019-03-26T18:23:17.657Z,3.83
2019-03-26T18:25:47.511Z,3.70
2019-03-26T18:28:17.682Z,3.77
2019-03-26T18:30:48.520Z,3.40
2019-03-26T18:33:19.516Z,4.00
2019-03-26T18:35:49.328Z,2.97
2019-03-26T18:38:19.230Z,2.70
2019-03-26T18:40:49.026Z,2.77
2019-03-26T18:43:19.024Z,3.27
2019-03-26T18:45:48.785Z,3.37
2019-03-26T18:48:18.567Z,3.30
2019-03-26T18:50:48.322Z,3.30
2019-03-26T18:53:18.243Z,3.10
2019-03-26T18:55:48.108Z,3.23
2019-03-26T18:58:18.008Z,3.37
2019-03-26T19:00:47.753Z,3.47
2019-03-26T19:03:17.631Z,3.60
2019-03-26T19:05:47.612Z,3.53
2019-03-26T19:08:17.506Z,3.70
2019-03-26T19:10:47.378Z,4.10
2019-03-26T19:13:19.843Z,4.30
2019-03-26T19:15:48.868Z,4.40
2019-03-26T19:18:18.681Z,4.10
2019-03-26T19:21:00.955Z,3.73
2019-03-26T19:23:20.039Z,4.10
2019-03-26T19:25:49.798Z,4.00
2019-03-26T19:28:19.918Z,4.10
2019-03-26T19:30:49.700Z,4.40
2019-03-26T19:33:19.466Z,3.80
2019-03-26T19:35:49.253Z,4.10
2019-03-26T19:38:19.021Z,3.93
2019-03-26T19:40:48.826Z,3.77
2019-03-26T19:43:18.708Z,4.00
2019-03-26T19:45:48.564Z,4.03
2019-03-26T19:48:18.339Z,4.00
2019-03-26T19:50:48.110Z,4.07
2019-03-26T19:53:17.891Z,4.13
2019-03-26T19:55:47.682Z,4.30
2019-03-26T19:58:17.453Z,4.20
2019-03-26T20:00:47.341Z,4.40
2019-03-26T20:03:17.208Z,4.47
2019-03-26T20:05:47.024Z,4.40
2019-03-26T20:08:16.793Z,4.90
2019-03-26T20:10:46.578Z,4.10
2019-03-26T20:13:24.218Z,4.17
2019-03-26T20:15:47.991Z,4.63
2019-03-26T20:18:17.753Z,4.83
2019-03-26T20:20:47.524Z,4.10
2019-03-26T20:23:17.390Z,4.67
2019-03-26T20:25:47.378Z,4.33
2019-03-26T20:28:17.243Z,4.33
2019-03-26T20:30:47.101Z,3.77
2019-03-26T20:33:16.868Z,9.90
2019-03-26T20:35:46.759Z,4.90
2019-03-26T20:38:16.549Z,6.83
2019-03-26T20:40:46.340Z,7.37
2019-03-26T20:43:16.094Z,5.80
2019-03-26T20:45:45.886Z,14.07
2019-03-26T20:48:15.720Z,10.57
2019-03-26T20:50:45.564Z,9.63
2019-03-26T20:53:15.469Z,12.27
2019-03-26T20:55:54.218Z,9.27
2019-03-26T20:58:16.741Z,14.47
2019-03-26T21:00:46.579Z,12.03
2019-03-26T21:03:16.363Z,11.50
2019-03-26T21:05:46.161Z,8.67
2019-03-26T21:08:15.928Z,13.23
2019-03-26T21:10:45.732Z,22.00
2019-03-26T21:13:16.282Z,18.17
2019-03-26T21:15:56.554Z,15.70
2019-03-26T21:18:17.790Z,10.00
2019-03-26T21:20:47.560Z,10.60
2019-03-26T21:23:17.431Z,7.57
2019-03-26T21:25:47.200Z,4.93
2019-03-26T21:28:16.989Z,5.10
2019-03-26T21:30:46.762Z,5.93
2019-03-26T21:33:16.616Z,5.23
2019-03-26T21:35:46.384Z,5.30
2019-03-26T21:38:16.296Z,6.03
2019-03-26T21:40:47.985Z,5.10
2019-03-26T21:43:17.859Z,5.23
2019-03-26T21:45:47.606Z,5.80
2019-03-26T21:48:17.384Z,5.53
2019-03-26T21:50:47.141Z,5.83
2019-03-26T21:53:16.958Z,5.13
2019-03-26T21:55:46.808Z,5.83
2019-03-26T21:58:16.591Z,5.87
2019-03-26T22:00:46.358Z,5.93
2019-03-26T22:03:16.139Z,5.27
2019-03-26T22:05:47.942Z,5.00
2019-03-26T22:08:17.419Z,5.47
2019-03-26T22:10:47.389Z,5.53
2019-03-26T22:13:17.262Z,5.27
2019-03-26T22:15:47.425Z,4.60
2019-03-26T22:18:17.334Z,5.50
2019-03-26T22:20:47.311Z,5.37
2019-03-26T22:23:17.116Z,4.93
2019-03-26T22:25:47.054Z,5.23
2019-03-26T22:28:16.827Z,5.70
2019-03-26T22:30:46.593Z,5.30
2019-03-26T22:33:16.370Z,5.33
2019-03-26T22:35:46.125Z,5.50
2019-03-26T22:38:15.912Z,5.70
2019-03-26T22:40:45.742Z,5.80
2019-03-26T22:43:15.517Z,5.60
2019-03-26T22:45:45.274Z,6.23
2019-03-26T22:48:15.065Z,6.10
2019-03-26T22:50:44.818Z,6.40
2019-03-26T22:53:14.734Z,6.87
2019-03-26T22:55:44.607Z,7.03
2019-03-26T22:58:14.488Z,7.33
2019-03-26T23:00:44.241Z,7.73
2019-03-26T23:03:14.019Z,7.50
2019-03-26T23:05:43.774Z,8.03
2019-03-26T23:08:13.533Z,7.87
2019-03-26T23:10:43.430Z,8.70
2019-03-26T23:13:13.386Z,8.70
2019-03-26T23:15:43.277Z,8.47
2019-03-26T23:18:13.148Z,8.90
2019-03-26T23:20:43.151Z,8.90
2019-03-26T23:23:13.006Z,8.77
2019-03-26T23:25:42.787Z,8.70
2019-03-26T23:28:12.549Z,9.20
2019-03-26T23:30:42.356Z,9.03
2019-03-26T23:33:12.456Z,9.50
2019-03-26T23:35:42.252Z,10.57
2019-03-26T23:38:12.135Z,10.23
2019-03-26T23:40:42.011Z,10.00
2019-03-26T23:43:11.973Z,10.20
2019-03-26T23:45:41.820Z,9.90
2019-03-26T23:48:11.574Z,10.80
2019-03-26T23:50:41.468Z,10.53
2019-03-26T23:53:11.355Z,10.27
2019-03-26T23:55:41.142Z,9.70
2019-03-26T23:58:11.023Z,10.67
